createdAt,value
2022-10-16T00:01:45.941Z,1.30
2022-10-16T00:04:14.085Z,1.40
2022-10-16T00:06:41.943Z,1.70
2022-10-16T00:09:10.544Z,1.33
2022-10-16T00:11:43.641Z,1.57
2022-10-16T00:14:14.443Z,1.47
2022-10-16T00:16:45.650Z,1.80
2022-10-16T00:19:13.724Z,1.73
2022-10-16T00:21:41.411Z,2.03
2022-10-16T00:24:11.061Z,1.40
2022-10-16T00:26:40.405Z,1.47
2022-10-16T00:29:08.653Z,1.70
2022-10-16T00:31:37.162Z,2.13
2022-10-16T00:34:06.446Z,1.90
2022-10-16T00:36:34.152Z,1.80
2022-10-16T00:39:02.829Z,1.63
2022-10-16T00:41:31.769Z,1.43
2022-10-16T00:44:00.914Z,1.63
2022-10-16T00:46:32.009Z,1.73
2022-10-16T00:49:03.625Z,1.53
2022-10-16T00:51:36.615Z,1.30
2022-10-16T00:54:08.186Z,1.37
2022-10-16T00:56:36.142Z,1.40
2022-10-16T00:59:08.573Z,1.40
2022-10-16T01:01:36.542Z,1.27
2022-10-16T01:04:04.403Z,1.70
2022-10-16T01:06:40.415Z,1.27
2022-10-16T01:09:18.584Z,1.40
2022-10-16T01:12:00.677Z,1.50
2022-10-16T01:14:36.272Z,1.35
2022-10-16T01:17:12.083Z,1.20
2022-10-16T01:19:52.492Z,1.33
2022-10-16T01:22:25.688Z,1.60
2022-10-16T01:24:57.331Z,1.07
2022-10-16T01:27:29.483Z,1.37
2022-10-16T01:30:04.783Z,1.53
2022-10-16T01:32:38.627Z,1.33
2022-10-16T01:35:12.518Z,1.50
2022-10-16T01:37:43.721Z,1.70
2022-10-16T01:40:14.635Z,1.57
2022-10-16T01:42:49.300Z,1.40
2022-10-16T01:45:20.850Z,1.43
2022-10-16T01:47:50.396Z,1.30
2022-10-16T01:50:20.976Z,1.30
2022-10-16T01:52:53.439Z,1.20
2022-10-16T01:55:34.062Z,1.23
2022-10-16T01:58:05.725Z,1.00
2022-10-16T02:00:33.509Z,1.20
2022-10-16T02:03:05.632Z,1.20
2022-10-16T02:05:36.271Z,1.30
2022-10-16T02:08:05.633Z,0.80
2022-10-16T02:10:34.139Z,1.10
2022-10-16T02:13:08.070Z,1.17
2022-10-16T02:15:35.750Z,1.37
2022-10-16T02:18:04.401Z,1.37
2022-10-16T02:20:36.545Z,1.00
2022-10-16T02:23:05.508Z,1.13
2022-10-16T02:25:36.863Z,1.30
2022-10-16T02:28:10.589Z,1.40
2022-10-16T02:30:42.935Z,1.10
2022-10-16T02:33:14.566Z,1.10
2022-10-16T02:35:44.165Z,1.50
2022-10-16T02:38:13.505Z,1.10
2022-10-16T02:40:41.329Z,1.27
2022-10-16T02:43:11.619Z,0.90
2022-10-16T02:45:39.389Z,1.00
2022-10-16T02:48:07.528Z,1.27
2022-10-16T02:50:35.214Z,1.00
2022-10-16T02:53:02.913Z,1.30
2022-10-16T02:55:30.514Z,1.13
2022-10-16T02:57:58.190Z,1.13
2022-10-16T03:00:27.374Z,1.17
2022-10-16T03:02:55.164Z,1.23
2022-10-16T03:07:55.386Z,1.13
2022-10-16T03:10:23.173Z,1.20
2022-10-16T03:12:50.785Z,1.10
2022-10-16T03:15:18.438Z,1.10
2022-10-16T03:17:47.432Z,1.10
2022-10-16T03:20:15.333Z,1.30
2022-10-16T03:22:42.960Z,1.10
2022-10-16T03:25:10.638Z,1.30
2022-10-16T03:27:38.280Z,1.40
2022-10-16T03:30:06.609Z,1.10
2022-10-16T03:35:09.886Z,1.27
2022-10-16T03:37:37.761Z,1.07
2022-10-16T03:40:06.116Z,1.10
2022-10-16T03:42:34.099Z,1.00
2022-10-16T03:45:01.673Z,1.20
2022-10-16T03:47:29.382Z,1.23
2022-10-16T03:49:57.207Z,0.83
2022-10-16T03:52:26.286Z,1.27
2022-10-16T03:54:53.982Z,1.10
2022-10-16T03:57:21.610Z,1.10
2022-10-16T03:59:49.265Z,1.07
2022-10-16T04:02:16.843Z,1.17
2022-10-16T04:04:44.469Z,1.03
2022-10-16T04:07:12.031Z,1.33
2022-10-16T04:09:40.998Z,1.00
2022-10-16T04:12:08.985Z,1.30
2022-10-16T04:14:36.633Z,1.00
2022-10-16T04:17:04.179Z,1.17
2022-10-16T04:19:31.761Z,1.00
2022-10-16T04:21:59.370Z,1.20
2022-10-16T04:24:26.942Z,1.13
2022-10-16T04:26:55.946Z,1.57
2022-10-16T04:29:23.539Z,1.07
2022-10-16T04:31:51.142Z,1.03
2022-10-16T04:34:18.738Z,1.00
2022-10-16T04:36:48.636Z,1.10
2022-10-16T04:39:16.250Z,0.93
2022-10-16T04:41:44.069Z,1.00
2022-10-16T04:44:13.026Z,1.07
2022-10-16T04:46:40.605Z,1.13
2022-10-16T04:49:08.563Z,1.40
2022-10-16T04:51:36.156Z,1.20
2022-10-16T04:54:03.812Z,1.10
2022-10-16T04:56:31.868Z,1.20
2022-10-16T04:58:59.494Z,1.30
2022-10-16T05:01:28.448Z,1.20
2022-10-16T05:03:55.982Z,1.07
2022-10-16T05:06:23.627Z,1.30
2022-10-16T05:08:51.225Z,1.57
2022-10-16T05:11:18.970Z,0.97
2022-10-16T05:13:46.866Z,1.20
2022-10-16T05:16:14.489Z,1.17
2022-10-16T05:18:43.522Z,1.20
2022-10-16T05:21:11.166Z,1.20
2022-10-16T05:23:38.873Z,1.23
2022-10-16T05:26:06.645Z,1.53
2022-10-16T05:28:34.343Z,1.40
2022-10-16T05:31:06.445Z,1.37
2022-10-16T05:33:34.134Z,1.37
2022-10-16T05:36:04.981Z,1.47
2022-10-16T05:38:32.582Z,1.23
2022-10-16T05:41:00.277Z,1.30
2022-10-16T05:43:31.072Z,1.33
2022-10-16T05:45:59.957Z,1.47
2022-10-16T05:48:28.125Z,1.30
2022-10-16T05:51:00.756Z,1.20
2022-10-16T05:53:31.999Z,1.40
2022-10-16T05:56:00.300Z,1.17
2022-10-16T05:58:32.718Z,1.47
2022-10-16T06:01:02.521Z,1.30
2022-10-16T06:03:30.175Z,1.30
2022-10-16T06:05:57.835Z,1.50
2022-10-16T06:08:25.678Z,1.30
2022-10-16T06:11:04.646Z,1.40
2022-10-16T06:13:32.240Z,1.50
2022-10-16T06:16:01.429Z,1.70
2022-10-16T06:18:30.067Z,1.60
2022-10-16T06:20:58.549Z,1.60
2022-10-16T06:23:26.950Z,1.60
2022-10-16T06:25:58.924Z,1.80
2022-10-16T06:28:30.841Z,1.70
2022-10-16T06:31:08.739Z,1.60
2022-10-16T06:33:41.048Z,1.67
2022-10-16T06:36:12.660Z,1.60
2022-10-16T06:38:40.780Z,1.80
2022-10-16T06:41:11.322Z,1.63
2022-10-16T06:43:42.322Z,1.77
2022-10-16T06:46:12.794Z,1.40
2022-10-16T06:48:42.480Z,2.00
2022-10-16T06:51:14.629Z,1.63
2022-10-16T06:54:01.458Z,2.40
2022-10-16T06:56:30.995Z,2.00
2022-10-16T06:59:00.505Z,1.50
2022-10-16T07:01:28.943Z,1.67
2022-10-16T07:03:56.613Z,1.93
2022-10-16T07:06:26.425Z,1.70
2022-10-16T07:08:54.208Z,1.83
2022-10-16T07:11:23.673Z,1.60
2022-10-16T07:13:54.811Z,1.63
2022-10-16T07:16:27.633Z,1.50
2022-10-16T07:18:59.746Z,1.47
2022-10-16T07:21:29.830Z,1.73
2022-10-16T07:23:59.223Z,1.50
2022-10-16T07:26:27.924Z,1.60
2022-10-16T07:28:55.799Z,1.97
2022-10-16T07:31:25.066Z,1.50
2022-10-16T07:33:53.407Z,1.90
2022-10-16T07:36:23.187Z,2.20
2022-10-16T07:38:52.896Z,1.80
2022-10-16T07:41:23.238Z,1.63
2022-10-16T07:43:52.627Z,1.60
2022-10-16T07:46:20.923Z,1.70
2022-10-16T07:48:50.194Z,1.50
2022-10-16T07:51:19.284Z,1.53
2022-10-16T07:53:47.739Z,2.10
2022-10-16T07:56:15.825Z,1.50
2022-10-16T07:58:43.403Z,1.53
2022-10-16T08:01:13.019Z,1.63
2022-10-16T08:03:41.104Z,1.63
2022-10-16T08:06:10.125Z,1.70
2022-10-16T08:08:39.699Z,1.70
2022-10-16T08:11:07.462Z,1.63
2022-10-16T08:13:39.414Z,1.50
2022-10-16T08:16:09.128Z,2.13
2022-10-16T08:18:37.573Z,1.40
2022-10-16T08:21:06.428Z,1.40
2022-10-16T08:23:36.279Z,1.50
2022-10-16T08:26:12.420Z,1.50
2022-10-16T08:28:40.160Z,1.67
2022-10-16T08:31:27.582Z,1.27
2022-10-16T08:37:03.057Z,1.63
2022-10-16T08:39:32.073Z,1.50
2022-10-16T08:42:16.624Z,1.50
2022-10-16T08:45:16.584Z,1.38
2022-10-16T08:47:51.552Z,1.35
2022-10-16T08:50:26.056Z,1.40
2022-10-16T08:52:54.042Z,1.50
2022-10-16T08:55:34.325Z,1.23
2022-10-16T08:58:02.407Z,1.35
2022-10-16T09:00:31.372Z,1.40
2022-10-16T09:03:13.022Z,1.20
2022-10-16T09:05:53.572Z,1.30
2022-10-16T09:08:28.140Z,1.30
2022-10-16T09:11:02.028Z,1.20
2022-10-16T09:13:37.682Z,1.42
2022-10-16T09:16:18.710Z,1.30
2022-10-16T09:18:53.975Z,1.40
2022-10-16T09:21:26.663Z,1.35
2022-10-16T09:23:59.125Z,1.45
2022-10-16T09:26:28.145Z,1.25
2022-10-16T09:28:55.883Z,1.63
2022-10-16T09:31:24.797Z,1.30
2022-10-16T09:33:56.949Z,1.38
2022-10-16T09:36:30.702Z,1.92
2022-10-16T09:39:07.182Z,1.60
2022-10-16T09:41:39.818Z,1.63
2022-10-16T09:44:21.389Z,1.40
2022-10-16T09:46:49.050Z,1.40
2022-10-16T09:49:25.295Z,1.70
2022-10-16T09:52:04.595Z,1.70
2022-10-16T09:54:32.257Z,1.48
2022-10-16T09:57:09.398Z,1.50
2022-10-16T09:59:48.359Z,1.77
2022-10-16T10:02:17.956Z,1.50
2022-10-16T10:04:52.342Z,2.03
2022-10-16T10:07:25.733Z,1.63
2022-10-16T10:10:00.335Z,1.52
2022-10-16T10:12:36.728Z,1.75
2022-10-16T10:15:08.484Z,1.83
2022-10-16T10:17:36.186Z,1.80
2022-10-16T10:20:23.640Z,1.50
2022-10-16T10:22:51.288Z,1.42
2022-10-16T10:25:34.938Z,1.88
2022-10-16T10:28:18.712Z,2.15
2022-10-16T10:30:55.723Z,1.50
2022-10-16T10:33:33.135Z,1.40
2022-10-16T10:36:11.702Z,1.67
2022-10-16T10:38:49.268Z,1.73
2022-10-16T10:41:55.574Z,1.40
2022-10-16T10:44:39.461Z,1.90
2022-10-16T10:47:20.671Z,1.52
2022-10-16T10:49:59.787Z,1.60
2022-10-16T10:52:43.730Z,1.90
2022-10-16T10:55:21.403Z,1.42
2022-10-16T10:58:02.842Z,1.55
2022-10-16T11:00:42.461Z,1.80
2022-10-16T11:03:20.402Z,1.73
2022-10-16T11:05:52.080Z,1.40
2022-10-16T11:08:22.946Z,2.25
2022-10-16T11:10:57.735Z,1.83
2022-10-16T11:13:40.227Z,0.90
2022-10-16T11:16:20.617Z,1.00
2022-10-16T11:18:54.091Z,0.88
2022-10-16T11:21:28.813Z,0.73
2022-10-16T11:24:04.328Z,1.00
2022-10-16T11:26:36.693Z,1.10
2022-10-16T11:29:10.821Z,0.90
2022-10-16T11:31:43.465Z,1.05
2022-10-16T11:34:19.703Z,1.02
2022-10-16T11:36:52.081Z,1.13
2022-10-16T11:39:23.239Z,1.23
2022-10-16T11:41:53.603Z,0.90
2022-10-16T11:44:48.542Z,1.40
2022-10-16T11:47:54.127Z,1.20
2022-10-16T11:50:22.563Z,1.00
2022-10-16T11:52:57.588Z,0.60
2022-10-16T11:55:32.428Z,0.75
2022-10-16T11:58:04.527Z,0.60
2022-10-16T12:00:39.675Z,0.75
2022-10-16T12:03:17.614Z,0.70
2022-10-16T12:06:00.782Z,0.85
2022-10-16T12:08:29.400Z,0.93
2022-10-16T12:11:09.884Z,0.70
2022-10-16T12:13:39.800Z,0.90
2022-10-16T12:16:24.340Z,0.60
2022-10-16T12:19:12.683Z,0.93
2022-10-16T12:21:40.416Z,0.90
2022-10-16T12:24:08.422Z,0.55
2022-10-16T12:26:40.446Z,0.65
2022-10-16T12:29:16.463Z,0.90
2022-10-16T12:31:57.448Z,0.63
2022-10-16T12:34:30.162Z,0.80
2022-10-16T12:37:09.460Z,0.98
2022-10-16T12:39:39.007Z,0.85
2022-10-16T12:42:21.047Z,1.10
2022-10-16T12:44:48.864Z,1.10
2022-10-16T12:47:23.276Z,1.00
2022-10-16T12:53:39.789Z,1.00
2022-10-16T12:56:27.122Z,0.90
2022-10-16T12:59:06.989Z,1.02
2022-10-16T13:01:43.775Z,0.80
2022-10-16T13:04:38.806Z,1.13
2022-10-16T13:07:21.493Z,1.20
2022-10-16T13:10:03.669Z,0.88
2022-10-16T13:12:56.632Z,0.90
2022-10-16T13:15:41.961Z,1.00
2022-10-16T13:18:17.733Z,0.90
2022-10-16T13:21:11.022Z,0.98
2022-10-16T13:23:50.108Z,1.00
2022-10-16T13:26:30.938Z,1.00
2022-10-16T13:29:01.460Z,0.90
2022-10-16T13:31:32.194Z,1.00
2022-10-16T13:34:01.788Z,1.20
2022-10-16T13:36:31.157Z,1.10
2022-10-16T13:39:15.183Z,1.00
2022-10-16T13:41:44.168Z,1.15
2022-10-16T13:44:17.505Z,0.82
2022-10-16T13:46:45.085Z,0.90
2022-10-16T13:49:17.579Z,1.00
2022-10-16T13:51:56.392Z,0.95
2022-10-16T13:54:24.941Z,0.77
2022-10-16T13:57:03.120Z,1.20
2022-10-16T13:59:36.103Z,1.02
2022-10-16T14:02:17.331Z,1.30
2022-10-16T14:04:45.109Z,1.30
2022-10-16T14:07:21.282Z,1.30
2022-10-16T14:09:52.009Z,1.15
2022-10-16T14:12:24.057Z,1.00
2022-10-16T14:14:56.544Z,0.80
2022-10-16T14:17:27.510Z,0.73
2022-10-16T14:19:59.674Z,0.60
2022-10-16T14:22:34.892Z,0.73
2022-10-16T14:25:02.951Z,0.80
2022-10-16T14:27:33.890Z,0.77
2022-10-16T14:30:15.971Z,0.70
2022-10-16T14:32:54.442Z,1.00
2022-10-16T14:35:31.816Z,0.90
2022-10-16T14:38:00.859Z,1.00
2022-10-16T14:40:31.071Z,0.93
2022-10-16T14:43:00.955Z,0.80
2022-10-16T14:45:31.525Z,0.95
2022-10-16T14:48:01.009Z,1.00
2022-10-16T14:50:28.695Z,0.90
2022-10-16T14:52:56.647Z,1.00
2022-10-16T14:57:59.857Z,0.93
2022-10-16T15:00:29.863Z,1.10
2022-10-16T15:02:57.488Z,1.30
2022-10-16T15:05:27.773Z,1.00
2022-10-16T15:07:56.984Z,1.23
2022-10-16T15:10:26.327Z,1.40
2022-10-16T15:12:54.426Z,1.15
2022-10-16T15:15:35.087Z,1.20
2022-10-16T15:18:03.598Z,1.38
2022-10-16T15:20:34.645Z,1.10
2022-10-16T15:23:03.469Z,1.35
2022-10-16T15:25:38.571Z,1.17
2022-10-16T15:28:06.453Z,1.50
2022-10-16T15:30:36.039Z,1.52
2022-10-16T15:33:04.900Z,1.70
2022-10-16T15:35:32.560Z,1.60
2022-10-16T15:38:00.374Z,1.60
2022-10-16T15:40:28.042Z,1.88
2022-10-16T15:42:55.731Z,1.50
2022-10-16T15:45:23.432Z,1.75
2022-10-16T15:47:52.681Z,1.67
2022-10-16T15:50:20.274Z,1.70
2022-10-16T15:52:48.213Z,1.60
2022-10-16T15:55:16.692Z,1.45
2022-10-16T15:57:44.244Z,1.33
2022-10-16T16:00:14.428Z,1.27
2022-10-16T16:02:42.021Z,1.15
2022-10-16T16:05:12.396Z,1.58
2022-10-16T16:07:41.590Z,1.30
2022-10-16T16:10:11.896Z,1.30
2022-10-16T16:12:40.475Z,1.40
2022-10-16T16:15:10.000Z,1.40
2022-10-16T16:17:38.432Z,1.70
2022-10-16T16:20:07.166Z,1.35
2022-10-16T16:22:36.054Z,1.63
2022-10-16T16:25:03.650Z,1.80
2022-10-16T16:27:34.491Z,1.40
2022-10-16T16:30:04.373Z,1.58
2022-10-16T16:32:32.035Z,1.75
2022-10-16T16:34:59.672Z,1.80
2022-10-16T16:37:27.473Z,1.30
2022-10-16T16:39:59.262Z,1.20
2022-10-16T16:42:27.345Z,1.30
2022-10-16T16:44:55.517Z,1.10
2022-10-16T16:47:23.493Z,1.35
2022-10-16T16:49:51.862Z,1.20
2022-10-16T16:52:20.071Z,1.30
2022-10-16T16:54:52.697Z,1.40
2022-10-16T16:57:22.558Z,1.35
2022-10-16T16:59:52.688Z,1.60
2022-10-16T17:02:20.430Z,1.48
2022-10-16T17:04:48.090Z,1.50
2022-10-16T17:07:16.850Z,1.40
2022-10-16T17:09:46.387Z,1.65
2022-10-16T17:12:13.937Z,1.42
2022-10-16T17:14:42.873Z,1.40
2022-10-16T17:17:10.534Z,1.70
2022-10-16T17:19:38.087Z,1.38
2022-10-16T17:22:05.925Z,1.80
2022-10-16T17:24:33.497Z,1.60
2022-10-16T17:27:01.085Z,1.60
2022-10-16T17:29:28.652Z,1.75
2022-10-16T17:31:59.244Z,1.83
2022-10-16T17:34:27.277Z,1.95
2022-10-16T17:36:54.941Z,1.70
2022-10-16T17:39:23.222Z,2.00
2022-10-16T17:41:50.934Z,1.60
2022-10-16T17:44:22.437Z,1.60
2022-10-16T17:46:51.776Z,1.90
2022-10-16T17:49:21.320Z,1.70
2022-10-16T17:51:51.947Z,1.70
2022-10-16T17:54:19.588Z,1.80
2022-10-16T17:56:49.930Z,2.22
2022-10-16T17:59:17.590Z,2.03
2022-10-16T18:01:46.256Z,1.67
2022-10-16T18:04:17.401Z,1.80
2022-10-16T18:06:47.667Z,2.20
2022-10-16T18:09:18.066Z,2.33
2022-10-16T18:11:46.301Z,2.20
2022-10-16T18:14:16.140Z,2.03
2022-10-16T18:16:44.601Z,2.33
2022-10-16T18:19:13.536Z,2.38
2022-10-16T18:21:41.335Z,2.40
2022-10-16T18:24:10.494Z,2.00
2022-10-16T18:26:38.703Z,2.88
2022-10-16T18:29:06.643Z,2.85
2022-10-16T18:31:37.782Z,3.15
2022-10-16T18:34:08.257Z,2.30
2022-10-16T18:36:36.584Z,2.88
2022-10-16T18:39:09.244Z,2.25
2022-10-16T18:41:39.335Z,3.28
2022-10-16T18:44:07.892Z,3.22
2022-10-16T18:46:35.494Z,3.70
2022-10-16T18:49:04.677Z,2.92
2022-10-16T18:51:33.848Z,3.28
2022-10-16T18:54:03.831Z,3.20
2022-10-16T18:56:32.755Z,3.35
2022-10-16T18:59:04.575Z,3.08
2022-10-16T19:01:34.660Z,3.30
2022-10-16T19:04:04.248Z,3.90
2022-10-16T19:06:35.956Z,3.20
2022-10-16T19:09:04.693Z,3.28
2022-10-16T19:11:34.131Z,3.28
2022-10-16T19:14:05.573Z,3.17
2022-10-16T19:16:34.777Z,3.03
2022-10-16T19:19:05.357Z,3.20
2022-10-16T19:21:36.288Z,3.00
2022-10-16T19:24:04.734Z,3.08
2022-10-16T19:26:35.751Z,3.63
2022-10-16T19:29:08.109Z,3.60
2022-10-16T19:31:35.913Z,3.13
2022-10-16T19:34:06.364Z,2.92
2022-10-16T19:36:35.761Z,3.65
2022-10-16T19:39:05.510Z,2.83
2022-10-16T19:41:33.273Z,3.60
2022-10-16T19:44:02.930Z,3.33
2022-10-16T19:46:33.615Z,3.53
2022-10-16T19:49:03.342Z,3.20
2022-10-16T19:51:31.483Z,3.13
2022-10-16T19:54:00.953Z,3.40
2022-10-16T19:56:31.406Z,3.40
2022-10-16T19:59:00.466Z,3.15
2022-10-16T20:01:29.968Z,3.33
2022-10-16T20:03:59.676Z,3.17
2022-10-16T20:06:27.947Z,3.47
2022-10-16T20:08:58.058Z,3.75
2022-10-16T20:11:27.651Z,3.88
2022-10-16T20:13:55.289Z,3.63
2022-10-16T20:16:22.995Z,3.42
2022-10-16T20:18:52.251Z,3.30
2022-10-16T20:21:23.832Z,3.70
2022-10-16T20:23:51.947Z,3.45
2022-10-16T20:26:22.165Z,3.38
2022-10-16T20:28:49.809Z,3.33
2022-10-16T20:31:22.476Z,2.95
2022-10-16T20:33:50.248Z,2.90
2022-10-16T20:36:18.623Z,4.70
2022-10-16T20:38:47.964Z,5.90
2022-10-16T20:41:16.326Z,3.60
2022-10-16T20:43:45.935Z,3.35
2022-10-16T20:46:16.056Z,3.05
2022-10-16T20:48:46.432Z,2.83
2022-10-16T20:51:16.285Z,3.70
2022-10-16T20:53:45.918Z,3.05
2022-10-16T20:56:17.387Z,3.08
2022-10-16T20:58:45.386Z,2.90
2022-10-16T21:01:15.280Z,3.30
2022-10-16T21:03:43.878Z,3.10
2022-10-16T21:06:12.065Z,2.55
2022-10-16T21:08:41.659Z,2.65
2022-10-16T21:11:15.282Z,2.90
2022-10-16T21:13:43.132Z,2.53
2022-10-16T21:16:12.392Z,2.75
2022-10-16T21:18:44.175Z,2.78
2022-10-16T21:21:19.694Z,2.70
2022-10-16T21:23:47.532Z,3.17
2022-10-16T21:26:18.136Z,2.67
2022-10-16T21:28:46.149Z,3.03
2022-10-16T21:31:19.220Z,3.05
2022-10-16T21:33:47.160Z,2.72
2022-10-16T21:36:15.945Z,2.88
2022-10-16T21:38:43.942Z,2.85
2022-10-16T21:41:20.659Z,2.85
2022-10-16T21:43:48.606Z,3.28
2022-10-16T21:46:17.231Z,3.13
2022-10-16T21:48:44.871Z,3.05
2022-10-16T21:51:13.017Z,3.20
2022-10-16T21:53:41.320Z,2.65
2022-10-16T21:56:14.462Z,3.25
2022-10-16T21:58:44.212Z,3.08
2022-10-16T22:01:14.505Z,2.85
2022-10-16T22:03:42.471Z,3.58
2022-10-16T22:06:11.711Z,2.67
2022-10-16T22:08:40.230Z,2.80
2022-10-16T22:11:10.137Z,2.67
2022-10-16T22:13:38.530Z,2.70
2022-10-16T22:16:08.696Z,3.03
2022-10-16T22:18:37.687Z,3.10
2022-10-16T22:21:07.061Z,2.90
2022-10-16T22:23:36.010Z,3.10
2022-10-16T22:26:07.299Z,2.72
2022-10-16T22:28:35.067Z,2.63
2022-10-16T22:31:03.802Z,2.85
2022-10-16T22:36:08.411Z,2.40
2022-10-16T22:38:37.324Z,2.58
2022-10-16T22:41:06.596Z,2.50
2022-10-16T22:43:36.734Z,2.58
2022-10-16T22:46:04.997Z,2.88
2022-10-16T22:48:34.152Z,2.63
2022-10-16T22:51:02.103Z,2.30
2022-10-16T22:53:30.048Z,2.30
2022-10-16T22:55:57.689Z,2.78
2022-10-16T22:58:25.410Z,2.60
2022-10-16T23:00:53.169Z,2.33
2022-10-16T23:03:20.956Z,2.40
2022-10-16T23:05:50.057Z,2.95
2022-10-16T23:08:17.972Z,2.70
2022-10-16T23:10:48.278Z,2.45
2022-10-16T23:13:16.110Z,2.50
2022-10-16T23:15:45.136Z,2.70
2022-10-16T23:18:13.374Z,2.00
2022-10-16T23:20:41.536Z,2.75
2022-10-16T23:23:10.859Z,2.47
2022-10-16T23:25:38.833Z,2.80
2022-10-16T23:28:06.533Z,2.58
2022-10-16T23:30:34.149Z,2.78
2022-10-16T23:33:01.709Z,2.63
2022-10-16T23:35:29.354Z,2.58
2022-10-16T23:37:58.136Z,2.80
2022-10-16T23:40:27.203Z,2.55
2022-10-16T23:42:54.895Z,2.72
2022-10-16T23:45:22.605Z,2.78
2022-10-16T23:47:50.160Z,2.30
2022-10-16T23:50:17.907Z,2.45
2022-10-16T23:52:45.515Z,2.30
2022-10-16T23:55:13.135Z,2.67
2022-10-16T23:57:42.079Z,2.58
